Time;durP1;ratioP1;P1;durP2;ratioP2;P2;SDS_P1;SDS_P2;PMS_P1;PMS_P2;Temp;Humidity;BMP_temperature;BMP_pressure;BME280_temperature;BME280_humidity;BME280_pressure;Samples;Min_cycle;Max_cycle;Signal;HPM_P1;HPM_P2
2023/12/29 00:01:52;;;;;;;5.07;3.78;;;;;;;;;;5112934;27;20035;-80
2023/12/29 00:04:18;;;;;;;4.70;4.22;;;;;;;;;;5110678;27;20031;-79
2023/12/29 00:06:44;;;;;;;4.63;4.18;;;;;;;;;;5131176;27;20580;-78
2023/12/29 00:09:12;;;;;;;4.88;4.47;;;;;;;;;;5129628;27;20122;-79
2023/12/29 00:11:39;;;;;;;4.05;3.75;;;;;;;;;;5129187;27;20035;-78
2023/12/29 00:14:07;;;;;;;3.75;3.50;;;;;;;;;;5128995;27;20479;-80
2023/12/29 00:16:34;;;;;;;3.50;3.20;;;;;;;;;;5129129;27;20051;-79
2023/12/29 00:19:00;;;;;;;4.20;3.90;;;;;;;;;;5129154;27;20410;-79
2023/12/29 00:21:26;;;;;;;2.88;2.70;;;;;;;;;;5130414;27;20043;-79
2023/12/29 00:23:52;;;;;;;3.75;3.45;;;;;;;;;;5109721;27;20065;-77
2023/12/29 00:26:18;;;;;;;5.20;3.15;;;;;;;;;;5089789;28;20049;-77
2023/12/29 00:28:53;;;;;;;5.95;4.85;;;;;;;;;;5127839;27;20558;-79
2023/12/29 00:31:19;;;;;;;2.78;2.58;;;;;;;;;;5134955;27;20023;-78
2023/12/29 00:33:45;;;;;;;5.57;4.88;;;;;;;;;;5136288;27;20054;-77
2023/12/29 00:36:17;;;;;;;4.28;3.88;;;;;;;;;;5117174;27;20891;-78
2023/12/29 00:38:43;;;;;;;5.05;4.68;;;;;;;;;;5116926;27;20031;-78
2023/12/29 00:41:09;;;;;;;4.72;4.25;;;;;;;;;;5135622;27;20121;-77
2023/12/29 00:43:35;;;;;;;5.28;4.78;;;;;;;;;;5116994;27;20125;-78
2023/12/29 00:46:01;;;;;;;5.13;4.63;;;;;;;;;;5116803;27;20042;-78
2023/12/29 00:48:29;;;;;;;4.63;3.10;;;;;;;;;;5097853;27;20032;-78
2023/12/29 00:50:55;;;;;;;3.97;3.63;;;;;;;;;;5100113;27;20726;-78
2023/12/29 00:53:20;;;;;;;3.95;3.65;;;;;;;;;;5100916;27;20130;-78
2023/12/29 00:55:46;;;;;;;4.57;3.75;;;;;;;;;;5117510;27;20209;-79
2023/12/29 00:58:12;;;;;;;5.53;4.20;;;;;;;;;;5099571;27;20038;-79
2023/12/29 01:00:38;;;;;;;6.18;3.70;;;;;;;;;;5117458;27;20034;-78
2023/12/29 01:03:04;;;;;;;3.08;2.88;;;;;;;;;;5136625;27;20058;-78
2023/12/29 01:05:30;;;;;;;3.67;3.38;;;;;;;;;;5123010;27;20039;-79
2023/12/29 01:07:56;;;;;;;3.65;3.35;;;;;;;;;;5137698;27;20035;-77
2023/12/29 01:10:22;;;;;;;3.53;3.22;;;;;;;;;;5136741;27;20031;-77
2023/12/29 01:12:48;;;;;;;4.50;4.10;;;;;;;;;;5119392;27;20039;-77
2023/12/29 01:15:15;;;;;;;4.57;4.28;;;;;;;;;;5137934;27;20138;-78
2023/12/29 01:17:41;;;;;;;4.68;3.63;;;;;;;;;;5119982;27;20138;-76
2023/12/29 01:20:07;;;;;;;3.40;3.20;;;;;;;;;;5120614;27;20039;-80
2023/12/29 01:22:33;;;;;;;4.85;4.45;;;;;;;;;;5102863;27;20036;-79
2023/12/29 01:25:00;;;;;;;3.80;3.50;;;;;;;;;;5135564;27;20027;-79
2023/12/29 01:27:28;;;;;;;4.05;3.75;;;;;;;;;;5118176;27;20035;-78
2023/12/29 01:29:54;;;;;;;3.75;3.10;;;;;;;;;;5117182;27;20072;-78
2023/12/29 01:32:20;;;;;;;3.28;2.92;;;;;;;;;;5085796;27;20062;-78
2023/12/29 01:34:46;;;;;;;4.30;3.90;;;;;;;;;;5120256;27;20555;-78
2023/12/29 01:37:12;;;;;;;3.13;2.90;;;;;;;;;;5103570;27;20118;-78
2023/12/29 01:39:39;;;;;;;3.35;3.15;;;;;;;;;;5138632;27;20027;-77
2023/12/29 01:42:05;;;;;;;1.83;1.75;;;;;;;;;;5083960;27;20031;-78
2023/12/29 01:44:32;;;;;;;3.78;3.03;;;;;;;;;;5081283;28;20035;-77
2023/12/29 01:47:01;;;;;;;4.15;3.75;;;;;;;;;;5097758;27;20027;-77
2023/12/29 01:49:27;;;;;;;3.58;3.28;;;;;;;;;;5134710;27;20033;-78
2023/12/29 01:51:56;;;;;;;3.55;3.25;;;;;;;;;;5133853;27;20581;-77
2023/12/29 01:54:23;;;;;;;3.83;3.53;;;;;;;;;;5114970;27;20031;-77
2023/12/29 01:56:49;;;;;;;3.58;3.28;;;;;;;;;;5135413;27;20071;-76
2023/12/29 01:59:15;;;;;;;3.00;2.80;;;;;;;;;;5116624;27;20062;-77
2023/12/29 02:01:41;;;;;;;4.25;3.90;;;;;;;;;;5098711;27;20038;-76
2023/12/29 02:04:07;;;;;;;3.50;3.30;;;;;;;;;;5116741;27;20085;-78
2023/12/29 02:06:33;;;;;;;4.20;3.05;;;;;;;;;;5116231;27;20511;-78
2023/12/29 02:08:59;;;;;;;4.18;3.90;;;;;;;;;;5098731;27;20039;-77
2023/12/29 02:11:25;;;;;;;2.70;2.60;;;;;;;;;;5082810;27;20096;-77
2023/12/29 02:13:51;;;;;;;3.65;3.35;;;;;;;;;;5100348;27;20066;-77
2023/12/29 02:16:44;;;;;;;2.88;2.70;;;;;;;;;;5102516;27;20090;-77
2023/12/29 02:19:19;;;;;;;3.45;3.25;;;;;;;;;;5124361;27;20103;-77
2023/12/29 02:21:45;;;;;;;3.90;3.63;;;;;;;;;;5127539;27;20027;-77
2023/12/29 02:24:11;;;;;;;3.50;3.20;;;;;;;;;;5128071;27;20055;-78
2023/12/29 02:26:38;;;;;;;3.25;2.70;;;;;;;;;;5110126;27;20031;-77
2023/12/29 02:29:05;;;;;;;3.10;2.90;;;;;;;;;;5118346;27;20031;-78
2023/12/29 02:31:31;;;;;;;2.85;2.65;;;;;;;;;;5121015;27;20052;-77
2023/12/29 02:33:57;;;;;;;2.28;2.08;;;;;;;;;;5136626;27;20027;-77
2023/12/29 02:36:23;;;;;;;3.22;3.03;;;;;;;;;;5121763;27;20039;-77
2023/12/29 02:38:49;;;;;;;3.08;2.80;;;;;;;;;;5115922;27;20038;-76
2023/12/29 02:41:15;;;;;;;2.78;2.63;;;;;;;;;;5133832;27;20027;-78
2023/12/29 02:43:41;;;;;;;3.42;3.22;;;;;;;;;;5097429;27;20058;-77
2023/12/29 02:46:07;;;;;;;4.00;3.70;;;;;;;;;;5113464;27;20027;-77
2023/12/29 02:48:33;;;;;;;3.30;3.05;;;;;;;;;;5130323;27;20049;-77
2023/12/29 02:51:02;;;;;;;3.13;2.92;;;;;;;;;;5115520;27;20042;-77
2023/12/29 02:53:28;;;;;;;2.33;2.13;;;;;;;;;;5131002;27;20118;-76
2023/12/29 02:55:54;;;;;;;2.70;2.50;;;;;;;;;;5133103;27;20121;-78
2023/12/29 02:58:20;;;;;;;2.88;2.67;;;;;;;;;;5131538;27;20039;-78
2023/12/29 03:00:46;;;;;;;2.53;2.33;;;;;;;;;;5132510;27;20023;-78
2023/12/29 03:03:12;;;;;;;3.22;3.03;;;;;;;;;;5113003;27;20035;-76
2023/12/29 03:05:38;;;;;;;3.15;2.95;;;;;;;;;;5096777;27;20575;-77
2023/12/29 03:08:04;;;;;;;2.97;2.67;;;;;;;;;;5111628;27;20506;-77
2023/12/29 03:10:30;;;;;;;3.20;3.00;;;;;;;;;;5130499;27;20534;-79
2023/12/29 03:12:56;;;;;;;3.85;3.22;;;;;;;;;;5135514;27;20069;-79
2023/12/29 03:15:22;;;;;;;3.42;3.22;;;;;;;;;;5102287;27;20056;-78
2023/12/29 03:17:47;;;;;;;4.05;3.75;;;;;;;;;;5136421;27;20047;-78
2023/12/29 03:20:14;;;;;;;4.35;3.95;;;;;;;;;;5136325;27;20023;-79
2023/12/29 03:22:40;;;;;;;3.67;3.38;;;;;;;;;;5081484;27;20185;-79
2023/12/29 03:25:06;;;;;;;5.18;4.70;;;;;;;;;;5121473;27;20072;-80
2023/12/29 03:27:32;;;;;;;3.58;3.30;;;;;;;;;;5103401;27;20027;-79
2023/12/29 03:29:58;;;;;;;4.47;4.07;;;;;;;;;;5118897;27;20038;-76
2023/12/29 03:32:24;;;;;;;4.70;4.28;;;;;;;;;;5113273;27;20070;-77
2023/12/29 03:34:49;;;;;;;5.07;4.57;;;;;;;;;;5111980;27;20027;-78
2023/12/29 03:37:16;;;;;;;3.05;2.85;;;;;;;;;;5120625;27;20039;-77
2023/12/29 03:39:42;;;;;;;3.20;3.00;;;;;;;;;;5133108;27;20058;-78
2023/12/29 03:42:08;;;;;;;4.75;4.20;;;;;;;;;;5099372;27;20035;-78
2023/12/29 03:44:34;;;;;;;8.52;3.42;;;;;;;;;;5116645;27;20517;-79
2023/12/29 03:47:00;;;;;;;3.17;2.97;;;;;;;;;;5134512;27;20034;-78
2023/12/29 03:49:26;;;;;;;3.70;3.40;;;;;;;;;;5099913;27;20031;-79
2023/12/29 03:51:52;;;;;;;3.72;3.42;;;;;;;;;;5135269;27;20035;-78
2023/12/29 03:54:19;;;;;;;3.28;3.08;;;;;;;;;;5135333;27;20034;-77
2023/12/29 03:56:45;;;;;;;3.03;2.83;;;;;;;;;;5117718;27;20038;-79
2023/12/29 03:59:11;;;;;;;4.63;3.05;;;;;;;;;;5136142;27;20494;-79
2023/12/29 04:01:37;;;;;;;4.18;3.22;;;;;;;;;;5097300;27;20034;-77
2023/12/29 04:04:03;;;;;;;3.38;3.08;;;;;;;;;;5081671;27;20099;-77
2023/12/29 04:06:29;;;;;;;3.97;3.67;;;;;;;;;;5112065;27;20080;-77
2023/12/29 04:08:55;;;;;;;4.82;3.38;;;;;;;;;;5130625;27;20133;-78
2023/12/29 04:11:21;;;;;;;4.35;3.45;;;;;;;;;;5115999;27;20077;-78
2023/12/29 04:13:47;;;;;;;4.13;3.80;;;;;;;;;;5085941;27;20122;-78
2023/12/29 04:16:13;;;;;;;3.25;2.95;;;;;;;;;;5137872;27;20034;-78
2023/12/29 04:18:39;;;;;;;4.38;4.00;;;;;;;;;;5096133;27;20039;-75
2023/12/29 04:21:05;;;;;;;3.10;2.90;;;;;;;;;;5129437;27;20030;-76
2023/12/29 04:23:31;;;;;;;3.72;3.40;;;;;;;;;;5129368;27;20502;-76
2023/12/29 04:25:57;;;;;;;4.03;3.72;;;;;;;;;;5093366;28;20478;-76
2023/12/29 04:28:23;;;;;;;4.00;3.70;;;;;;;;;;5092575;27;20137;-76
2023/12/29 04:30:48;;;;;;;4.60;3.88;;;;;;;;;;5129696;27;20031;-75
2023/12/29 04:33:14;;;;;;;2.85;2.70;;;;;;;;;;5130067;27;20059;-77
2023/12/29 04:35:40;;;;;;;5.03;4.07;;;;;;;;;;5130417;27;20080;-77
2023/12/29 04:38:07;;;;;;;3.67;3.13;;;;;;;;;;5095012;27;20107;-77
2023/12/29 04:40:34;;;;;;;3.83;3.45;;;;;;;;;;5111777;28;20115;-80
2023/12/29 04:43:00;;;;;;;4.10;3.70;;;;;;;;;;5098325;27;20044;-77
2023/12/29 04:45:26;;;;;;;6.53;5.55;;;;;;;;;;5113664;27;20047;-79
2023/12/29 04:47:52;;;;;;;4.50;4.10;;;;;;;;;;5128708;27;20042;-78
2023/12/29 04:50:18;;;;;;;4.07;3.70;;;;;;;;;;5109559;27;20053;-79
2023/12/29 04:52:44;;;;;;;4.78;4.22;;;;;;;;;;5110116;27;20026;-78
2023/12/29 04:55:09;;;;;;;4.82;3.72;;;;;;;;;;5109992;28;20027;-78
2023/12/29 04:57:35;;;;;;;7.20;3.58;;;;;;;;;;5060558;28;20509;-79
2023/12/29 05:00:01;;;;;;;5.47;3.75;;;;;;;;;;5108337;27;20563;-76
2023/12/29 05:02:30;;;;;;;4.75;4.35;;;;;;;;;;5111861;27;20034;-78
2023/12/29 05:04:56;;;;;;;3.30;3.10;;;;;;;;;;5109891;27;20033;-78
2023/12/29 05:07:23;;;;;;;3.08;2.88;;;;;;;;;;5110245;28;20046;-77
2023/12/29 05:09:49;;;;;;;5.22;4.82;;;;;;;;;;5110346;27;20023;-77
2023/12/29 05:12:15;;;;;;;5.78;3.80;;;;;;;;;;5109956;27;20087;-76
2023/12/29 05:14:43;;;;;;;5.40;4.88;;;;;;;;;;5129040;27;20027;-77
2023/12/29 05:17:09;;;;;;;4.72;4.07;;;;;;;;;;5131649;27;20043;-77
2023/12/29 05:19:35;;;;;;;5.22;4.72;;;;;;;;;;5131914;27;20517;-77
2023/12/29 05:22:01;;;;;;;4.53;4.10;;;;;;;;;;5113272;27;20419;-76
2023/12/29 05:24:27;;;;;;;4.18;3.78;;;;;;;;;;5113598;27;20107;-76
2023/12/29 05:26:53;;;;;;;6.60;4.57;;;;;;;;;;5128737;27;20043;-76
2023/12/29 05:29:19;;;;;;;6.70;4.35;;;;;;;;;;5146652;27;20061;-76
2023/12/29 05:31:45;;;;;;;4.30;3.95;;;;;;;;;;5115724;27;20055;-75
2023/12/29 05:34:11;;;;;;;6.22;5.15;;;;;;;;;;5115135;27;20045;-76
2023/12/29 05:36:37;;;;;;;5.95;5.47;;;;;;;;;;5132710;27;20050;-77
2023/12/29 05:39:03;;;;;;;4.60;4.25;;;;;;;;;;5131571;27;20032;-75
2023/12/29 05:41:29;;;;;;;7.85;5.55;;;;;;;;;;5132648;27;20046;-76
2023/12/29 05:43:57;;;;;;;6.72;4.75;;;;;;;;;;5095710;27;20035;-76
2023/12/29 05:46:23;;;;;;;5.45;4.88;;;;;;;;;;5112303;27;20039;-77
2023/12/29 05:48:51;;;;;;;3.50;2.95;;;;;;;;;;5112566;27;20023;-76
2023/12/29 05:51:16;;;;;;;6.20;5.03;;;;;;;;;;5112592;27;20031;-76
2023/12/29 05:53:43;;;;;;;6.05;4.53;;;;;;;;;;5132193;27;20032;-77
2023/12/29 05:56:11;;;;;;;6.93;6.32;;;;;;;;;;5131334;27;20092;-76
2023/12/29 05:58:37;;;;;;;6.32;5.05;;;;;;;;;;5130685;27;20038;-76
2023/12/29 06:01:05;;;;;;;8.43;4.80;;;;;;;;;;5130924;27;20023;-76
2023/12/29 06:03:32;;;;;;;6.72;5.38;;;;;;;;;;5130576;27;20517;-76
2023/12/29 06:05:57;;;;;;;5.75;5.22;;;;;;;;;;5112720;27;20068;-72
2023/12/29 06:08:23;;;;;;;6.50;4.63;;;;;;;;;;5131755;27;20379;-71
2023/12/29 06:10:49;;;;;;;6.57;5.97;;;;;;;;;;5091591;28;20032;-71
2023/12/29 06:13:15;;;;;;;6.90;5.35;;;;;;;;;;5112312;27;20027;-71
2023/12/29 06:15:41;;;;;;;6.68;5.43;;;;;;;;;;5130278;27;20092;-71
2023/12/29 06:18:07;;;;;;;9.18;5.90;;;;;;;;;;5095334;27;20043;-71
2023/12/29 06:20:33;;;;;;;5.93;5.15;;;;;;;;;;5131530;27;20452;-71
2023/12/29 06:22:59;;;;;;;8.95;7.57;;;;;;;;;;5111816;27;20035;-71
2023/12/29 06:25:25;;;;;;;7.30;4.93;;;;;;;;;;5093451;27;20072;-71
2023/12/29 06:27:51;;;;;;;8.60;5.90;;;;;;;;;;5126704;27;20103;-70
2023/12/29 06:30:17;;;;;;;9.60;5.28;;;;;;;;;;5112345;27;20020;-71
2023/12/29 06:32:43;;;;;;;9.05;4.47;;;;;;;;;;5117071;27;20090;-71
2023/12/29 06:35:10;;;;;;;8.05;5.93;;;;;;;;;;5119067;27;20034;-71
2023/12/29 06:37:36;;;;;;;7.45;6.05;;;;;;;;;;5118178;27;20043;-71
2023/12/29 06:40:03;;;;;;;5.97;5.38;;;;;;;;;;5129281;27;20113;-71
2023/12/29 06:42:29;;;;;;;7.40;5.18;;;;;;;;;;5112152;27;20062;-71
2023/12/29 06:44:55;;;;;;;6.25;5.57;;;;;;;;;;5129473;27;20059;-71
2023/12/29 06:47:21;;;;;;;6.50;5.72;;;;;;;;;;5122359;27;20426;-72
2023/12/29 06:49:47;;;;;;;6.50;5.20;;;;;;;;;;5110835;27;20031;-72
2023/12/29 06:52:13;;;;;;;6.45;5.47;;;;;;;;;;5111386;27;20144;-71
2023/12/29 06:54:39;;;;;;;9.52;6.93;;;;;;;;;;5122119;27;20109;-70
2023/12/29 06:57:05;;;;;;;8.02;6.13;;;;;;;;;;5129240;27;20506;-70
2023/12/29 06:59:31;;;;;;;9.82;6.00;;;;;;;;;;5115128;27;20034;-71
2023/12/29 07:01:57;;;;;;;8.55;4.85;;;;;;;;;;5127996;27;20027;-71
2023/12/29 07:04:23;;;;;;;4.82;4.35;;;;;;;;;;5115236;27;20027;-70
2023/12/29 07:06:49;;;;;;;4.97;4.57;;;;;;;;;;5130424;27;20080;-70
2023/12/29 07:09:15;;;;;;;7.32;5.88;;;;;;;;;;5129580;27;20444;-70
2023/12/29 07:11:41;;;;;;;9.30;6.65;;;;;;;;;;5130303;27;20130;-69
2023/12/29 07:14:06;;;;;;;4.68;4.05;;;;;;;;;;5130634;27;20072;-70
2023/12/29 07:16:32;;;;;;;6.63;4.63;;;;;;;;;;5095229;27;20031;-69
2023/12/29 07:18:58;;;;;;;8.00;6.43;;;;;;;;;;5094910;27;20058;-69
2023/12/29 07:21:24;;;;;;;6.38;5.75;;;;;;;;;;5112002;27;20043;-70
2023/12/29 07:23:50;;;;;;;6.65;5.05;;;;;;;;;;5122487;27;20122;-71
2023/12/29 07:26:16;;;;;;;7.28;6.00;;;;;;;;;;5114855;27;20446;-70
2023/12/29 07:28:42;;;;;;;9.20;6.47;;;;;;;;;;5129705;27;20128;-70
2023/12/29 07:31:07;;;;;;;6.85;6.07;;;;;;;;;;5130351;27;20031;-70
2023/12/29 07:33:33;;;;;;;7.00;6.15;;;;;;;;;;5129563;27;20055;-69
2023/12/29 07:35:59;;;;;;;8.75;7.03;;;;;;;;;;5111565;27;20063;-70
2023/12/29 07:38:25;;;;;;;8.82;5.75;;;;;;;;;;5129199;27;20067;-69
2023/12/29 07:40:51;;;;;;;7.70;5.50;;;;;;;;;;5130247;27;20031;-69
2023/12/29 07:43:17;;;;;;;7.30;6.57;;;;;;;;;;5111615;27;20092;-69
2023/12/29 07:45:43;;;;;;;8.82;5.55;;;;;;;;;;5129670;27;20122;-70
2023/12/29 07:48:09;;;;;;;7.40;6.38;;;;;;;;;;5111552;27;20034;-71
2023/12/29 07:50:35;;;;;;;9.13;6.07;;;;;;;;;;5129735;27;20114;-70
2023/12/29 07:53:02;;;;;;;5.45;4.68;;;;;;;;;;5123176;27;20031;-70
2023/12/29 07:55:29;;;;;;;7.00;6.22;;;;;;;;;;5082052;28;20527;-69
2023/12/29 07:57:55;;;;;;;6.72;6.13;;;;;;;;;;5100307;27;20095;-70
2023/12/29 08:00:22;;;;;;;10.30;7.75;;;;;;;;;;5118158;27;20039;-70
2023/12/29 08:02:47;;;;;;;8.02;6.40;;;;;;;;;;5122090;27;20039;-70
2023/12/29 08:05:15;;;;;;;9.68;6.53;;;;;;;;;;5088014;27;20035;-72
2023/12/29 08:07:41;;;;;;;5.88;5.35;;;;;;;;;;5101347;27;20507;-71
2023/12/29 08:10:07;;;;;;;9.27;6.38;;;;;;;;;;5101346;27;20043;-70
2023/12/29 08:12:33;;;;;;;8.35;6.65;;;;;;;;;;5119672;27;20052;-71
2023/12/29 08:15:00;;;;;;;8.02;6.53;;;;;;;;;;5115393;27;20118;-71
2023/12/29 08:17:26;;;;;;;5.82;5.00;;;;;;;;;;5094226;28;20043;-70
2023/12/29 08:19:52;;;;;;;5.93;5.30;;;;;;;;;;5091715;28;20039;-70
2023/12/29 08:22:19;;;;;;;9.48;6.93;;;;;;;;;;5110032;28;20028;-70
2023/12/29 08:24:45;;;;;;;5.85;4.95;;;;;;;;;;5109150;28;20038;-69
2023/12/29 08:27:12;;;;;;;5.07;4.45;;;;;;;;;;5111567;28;20468;-70
2023/12/29 08:29:38;;;;;;;6.43;5.82;;;;;;;;;;5129099;28;20059;-69
2023/12/29 08:32:04;;;;;;;9.23;6.90;;;;;;;;;;5111341;28;20051;-68
2023/12/29 08:34:30;;;;;;;8.65;7.75;;;;;;;;;;5094006;28;20046;-69
2023/12/29 08:36:56;;;;;;;6.45;5.85;;;;;;;;;;5094357;27;20047;-69
2023/12/29 08:39:22;;;;;;;8.25;7.22;;;;;;;;;;5123281;27;20027;-70
2023/12/29 08:41:49;;;;;;;9.77;7.07;;;;;;;;;;5083246;27;20069;-69
2023/12/29 08:44:15;;;;;;;9.88;7.78;;;;;;;;;;5116076;28;20084;-69
2023/12/29 08:46:41;;;;;;;8.18;7.13;;;;;;;;;;5098519;28;20110;-68
2023/12/29 08:49:07;;;;;;;9.45;6.45;;;;;;;;;;5118141;27;20172;-70
2023/12/29 08:51:33;;;;;;;6.75;6.15;;;;;;;;;;5104171;27;20092;-69
2023/12/29 08:53:59;;;;;;;9.05;8.13;;;;;;;;;;5120408;27;20039;-69
2023/12/29 08:56:25;;;;;;;8.18;6.07;;;;;;;;;;5123875;27;20038;-69
2023/12/29 08:58:51;;;;;;;5.47;4.00;;;;;;;;;;5104120;27;20031;-69
2023/12/29 09:01:16;;;;;;;5.68;4.70;;;;;;;;;;5120989;27;20191;-70
2023/12/29 09:03:42;;;;;;;7.30;6.47;;;;;;;;;;5124891;27;20027;-70
2023/12/29 09:06:08;;;;;;;8.02;7.07;;;;;;;;;;5131065;27;20085;-69
2023/12/29 09:08:34;;;;;;;7.22;6.47;;;;;;;;;;5107478;27;20027;-69
2023/12/29 09:11:00;;;;;;;7.53;6.72;;;;;;;;;;5123809;27;20031;-71
2023/12/29 09:13:26;;;;;;;8.70;7.00;;;;;;;;;;5113230;27;20058;-70
2023/12/29 09:15:53;;;;;;;5.88;5.28;;;;;;;;;;5131654;27;20100;-68
2023/12/29 09:18:19;;;;;;;9.57;6.93;;;;;;;;;;5093469;27;20047;-69
2023/12/29 09:20:45;;;;;;;10.93;7.75;;;;;;;;;;5132147;27;20031;-69
2023/12/29 09:23:11;;;;;;;12.10;6.90;;;;;;;;;;5114645;27;20033;-69
2023/12/29 09:25:37;;;;;;;10.20;7.70;;;;;;;;;;5096731;27;20039;-69
2023/12/29 09:28:03;;;;;;;7.00;6.38;;;;;;;;;;5111935;27;20070;-69
2023/12/29 09:30:28;;;;;;;8.55;7.70;;;;;;;;;;5114313;27;20103;-70
2023/12/29 09:32:54;;;;;;;9.05;8.13;;;;;;;;;;5113988;27;20146;-71
2023/12/29 09:35:20;;;;;;;10.02;7.28;;;;;;;;;;5132634;27;20042;-70
2023/12/29 09:37:49;;;;;;;9.02;7.43;;;;;;;;;;5079867;27;20498;-69
2023/12/29 09:40:15;;;;;;;6.88;6.18;;;;;;;;;;5130035;27;20027;-69
2023/12/29 09:42:46;;;;;;;11.10;7.43;;;;;;;;;;5130587;27;20422;-69
2023/12/29 09:45:12;;;;;;;;;;;;;;;;;;5114257;27;20050;-69
2023/12/29 09:47:39;;;;;;;11.60;9.63;;;;;;;;;;5099797;27;19943;-70
2023/12/29 09:50:06;;;;;;;6.88;6.05;;;;;;;;;;5129217;27;20409;-70
2023/12/29 09:52:32;;;;;;;7.57;6.07;;;;;;;;;;5118407;27;20038;-69
2023/12/29 09:54:58;;;;;;;10.32;7.68;;;;;;;;;;5106720;27;20027;-69
2023/12/29 09:57:24;;;;;;;11.60;8.45;;;;;;;;;;5121415;27;20119;-69
2023/12/29 09:59:51;;;;;;;11.45;8.30;;;;;;;;;;5118704;27;20072;-69
2023/12/29 10:02:17;;;;;;;14.25;9.45;;;;;;;;;;5086369;27;20111;-69
2023/12/29 10:04:44;;;;;;;9.45;8.35;;;;;;;;;;5120847;27;20855;-68
2023/12/29 10:07:13;;;;;;;11.60;8.93;;;;;;;;;;5085605;27;20207;-69
2023/12/29 10:09:39;;;;;;;11.43;8.68;;;;;;;;;;5118618;27;20023;-69
2023/12/29 10:12:05;;;;;;;11.30;8.40;;;;;;;;;;5118391;27;20053;-70
2023/12/29 10:14:41;;;;;;;9.93;8.90;;;;;;;;;;5119978;27;20032;-69
2023/12/29 10:17:12;;;;;;;7.20;5.82;;;;;;;;;;5119728;27;20043;-69
2023/12/29 10:19:38;;;;;;;;;;;;;;;;;;5101782;27;20309;-69
2023/12/29 10:22:23;;;;;;;11.02;8.35;;;;;;;;;;5101083;27;20625;-69
2023/12/29 10:24:49;;;;;;;10.15;7.80;;;;;;;;;;5088125;27;20027;-69
2023/12/29 10:27:15;;;;;;;15.02;8.57;;;;;;;;;;5102392;27;20043;-69
2023/12/29 10:29:41;;;;;;;8.43;7.68;;;;;;;;;;5118877;27;20031;-69
2023/12/29 10:32:07;;;;;;;11.10;8.60;;;;;;;;;;5121782;27;20173;-69
2023/12/29 10:34:33;;;;;;;13.00;8.52;;;;;;;;;;5119848;27;20031;-69
2023/12/29 10:37:01;;;;;;;12.10;7.95;;;;;;;;;;5102577;27;20077;-70
2023/12/29 10:39:28;;;;;;;11.10;9.73;;;;;;;;;;5119152;27;20523;-70
2023/12/29 10:42:07;;;;;;;10.75;7.60;;;;;;;;;;5101555;27;20038;-70
2023/12/29 10:44:34;;;;;;;15.48;10.63;;;;;;;;;;5120644;27;20030;-69
2023/12/29 10:47:20;;;;;;;14.00;10.23;;;;;;;;;;5102723;27;20020;-69
2023/12/29 10:49:47;;;;;;;15.07;9.93;;;;;;;;;;5120758;27;20045;-68
2023/12/29 10:52:16;;;;;;;16.10;9.65;;;;;;;;;;5120220;27;20035;-69
2023/12/29 10:54:42;;;;;;;14.80;11.02;;;;;;;;;;5118144;27;20027;-69
2023/12/29 10:57:09;;;;;;;17.45;13.38;;;;;;;;;;5085086;27;20503;-70
2023/12/29 10:59:35;;;;;;;17.42;11.48;;;;;;;;;;5119606;27;20028;-69
2023/12/29 11:02:04;;;;;;;19.20;12.80;;;;;;;;;;5102577;27;20028;-69
2023/12/29 11:04:30;;;;;;;21.50;13.65;;;;;;;;;;5121477;27;20035;-69
2023/12/29 11:06:56;;;;;;;17.13;12.13;;;;;;;;;;5101838;27;20035;-68
2023/12/29 11:09:32;;;;;;;17.75;14.15;;;;;;;;;;5121560;27;20075;-69
2023/12/29 11:11:59;;;;;;;25.65;15.88;;;;;;;;;;5102144;27;20027;-70
2023/12/29 11:14:25;;;;;;;15.63;14.00;;;;;;;;;;5082280;27;20035;-69
2023/12/29 11:16:51;;;;;;;12.77;10.80;;;;;;;;;;5127465;27;20043;-69
2023/12/29 11:19:17;;;;;;;22.20;15.77;;;;;;;;;;5112889;27;20042;-70
2023/12/29 11:21:43;;;;;;;19.65;14.77;;;;;;;;;;5086869;27;20031;-70
2023/12/29 11:24:09;;;;;;;14.70;12.25;;;;;;;;;;5100983;27;20061;-70
2023/12/29 11:26:35;;;;;;;14.57;12.63;;;;;;;;;;5118346;27;20042;-69
2023/12/29 11:29:01;;;;;;;19.10;14.50;;;;;;;;;;5129656;27;20027;-68
2023/12/29 11:31:27;;;;;;;13.85;11.63;;;;;;;;;;5130463;27;20041;-70
2023/12/29 11:33:54;;;;;;;14.75;12.93;;;;;;;;;;5108872;27;20063;-72
2023/12/29 11:36:23;;;;;;;18.77;13.70;;;;;;;;;;5130202;27;20634;-70
2023/12/29 11:38:49;;;;;;;22.13;12.07;;;;;;;;;;5107559;28;20523;-70
2023/12/29 11:41:24;;;;;;;14.93;13.02;;;;;;;;;;5091742;28;20059;-70
2023/12/29 11:44:00;;;;;;;12.23;10.10;;;;;;;;;;5092162;28;20043;-70
2023/12/29 11:46:32;;;;;;;11.65;10.15;;;;;;;;;;5091384;28;20062;-70
2023/12/29 11:49:03;;;;;;;15.68;9.82;;;;;;;;;;5109920;28;20501;-70
2023/12/29 11:51:35;;;;;;;8.43;7.63;;;;;;;;;;5117777;27;20035;-70
2023/12/29 11:54:02;;;;;;;8.85;7.90;;;;;;;;;;5111735;27;20035;-70
2023/12/29 11:56:34;;;;;;;6.57;5.53;;;;;;;;;;5111600;27;20749;-70
2023/12/29 11:59:13;;;;;;;7.88;6.80;;;;;;;;;;5130045;27;20038;-70
2023/12/29 12:01:39;;;;;;;8.60;7.15;;;;;;;;;;5129826;27;20502;-68
2023/12/29 12:04:25;;;;;;;11.23;7.75;;;;;;;;;;5130188;27;20027;-69
2023/12/29 12:06:51;;;;;;;13.55;7.78;;;;;;;;;;5129707;27;20564;-69
2023/12/29 12:09:20;;;;;;;5.03;4.53;;;;;;;;;;5109220;27;20129;-70
2023/12/29 12:11:47;;;;;;;8.57;7.15;;;;;;;;;;5111773;27;20049;-69
2023/12/29 12:14:32;;;;;;;8.55;7.25;;;;;;;;;;5097005;28;20035;-69
2023/12/29 12:16:58;;;;;;;8.88;7.78;;;;;;;;;;5109363;28;20075;-69
2023/12/29 12:19:27;;;;;;;8.70;7.35;;;;;;;;;;5109243;28;20195;-69
2023/12/29 12:21:53;;;;;;;9.55;7.25;;;;;;;;;;5108947;28;20233;-69
2023/12/29 12:24:22;;;;;;;6.85;6.18;;;;;;;;;;5110897;27;20069;-69
2023/12/29 12:26:51;;;;;;;7.40;6.45;;;;;;;;;;5110808;27;20714;-70
2023/12/29 12:29:17;;;;;;;10.85;7.60;;;;;;;;;;5121493;27;20165;-69
2023/12/29 12:32:12;;;;;;;8.43;7.50;;;;;;;;;;5121341;27;20161;-70
2023/12/29 12:34:39;;;;;;;7.70;6.93;;;;;;;;;;5103636;27;20418;-70
2023/12/29 12:37:07;;;;;;;7.20;6.50;;;;;;;;;;5125465;27;20045;-70
2023/12/29 12:39:40;;;;;;;8.00;6.93;;;;;;;;;;5110711;27;20043;-70
2023/12/29 12:42:06;;;;;;;5.30;4.80;;;;;;;;;;5129407;27;20023;-69
2023/12/29 12:44:32;;;;;;;9.07;7.18;;;;;;;;;;5121629;27;20023;-70
2023/12/29 12:46:58;;;;;;;8.05;6.53;;;;;;;;;;5121978;27;20036;-69
2023/12/29 12:49:24;;;;;;;5.70;5.30;;;;;;;;;;5118555;27;20034;-70
2023/12/29 12:51:50;;;;;;;9.43;6.60;;;;;;;;;;5090606;28;20035;-70
2023/12/29 12:54:19;;;;;;;6.38;5.80;;;;;;;;;;5109055;28;20576;-69
2023/12/29 12:56:46;;;;;;;7.10;5.82;;;;;;;;;;5108466;28;20036;-68
2023/12/29 12:59:12;;;;;;;5.32;4.50;;;;;;;;;;5105837;28;20031;-70
2023/12/29 13:01:38;;;;;;;4.60;4.25;;;;;;;;;;5128849;27;20074;-69
2023/12/29 13:04:06;;;;;;;4.82;4.53;;;;;;;;;;5110757;28;20031;-69
2023/12/29 13:06:33;;;;;;;6.18;5.57;;;;;;;;;;5110497;28;20031;-69
2023/12/29 13:08:59;;;;;;;7.45;6.15;;;;;;;;;;5093568;27;20035;-69
2023/12/29 13:11:25;;;;;;;6.13;5.63;;;;;;;;;;5129068;27;20031;-68
2023/12/29 13:13:56;;;;;;;4.88;4.45;;;;;;;;;;5109980;28;20495;-68
2023/12/29 13:16:32;;;;;;;6.35;4.55;;;;;;;;;;5127342;27;20067;-68
2023/12/29 13:19:14;;;;;;;8.27;6.30;;;;;;;;;;5097558;28;20039;-69
2023/12/29 13:21:40;;;;;;;5.60;5.10;;;;;;;;;;5127494;27;20047;-68
2023/12/29 13:24:06;;;;;;;6.25;5.72;;;;;;;;;;5128951;27;20027;-69
2023/12/29 13:26:32;;;;;;;6.00;5.38;;;;;;;;;;5128763;27;20035;-70
2023/12/29 13:28:58;;;;;;;6.82;6.13;;;;;;;;;;5110294;28;20103;-69
2023/12/29 13:31:24;;;;;;;5.18;4.65;;;;;;;;;;5128738;28;20502;-69
2023/12/29 13:33:51;;;;;;;7.47;6.70;;;;;;;;;;5127411;28;20076;-69
2023/12/29 13:36:25;;;;;;;7.82;5.72;;;;;;;;;;5118325;27;20117;-68
2023/12/29 13:38:53;;;;;;;7.93;5.53;;;;;;;;;;5129740;27;20122;-68
2023/12/29 13:41:19;;;;;;;10.20;6.47;;;;;;;;;;5114267;27;20041;-68
2023/12/29 13:43:45;;;;;;;5.57;5.18;;;;;;;;;;5126807;27;20055;-69
2023/12/29 13:46:12;;;;;;;8.80;6.53;;;;;;;;;;5112041;28;20062;-69
2023/12/29 13:48:38;;;;;;;4.38;4.07;;;;;;;;;;5111414;27;20027;-68
2023/12/29 13:51:03;;;;;;;10.23;5.93;;;;;;;;;;5111836;28;20084;-69
2023/12/29 13:53:30;;;;;;;5.63;4.97;;;;;;;;;;5127633;27;20066;-70
2023/12/29 13:56:06;;;;;;;7.35;6.55;;;;;;;;;;5110187;28;20048;-69
2023/12/29 13:58:32;;;;;;;6.30;5.70;;;;;;;;;;5128478;27;20054;-68
2023/12/29 14:00:58;;;;;;;7.63;6.35;;;;;;;;;;5132071;27;20031;-68
2023/12/29 14:03:32;;;;;;;8.07;6.95;;;;;;;;;;5113779;27;20039;-68
2023/12/29 14:06:05;;;;;;;5.80;5.30;;;;;;;;;;5132001;27;20035;-67
2023/12/29 14:08:31;;;;;;;7.38;6.65;;;;;;;;;;5113551;27;20062;-68
2023/12/29 14:10:57;;;;;;;7.05;6.32;;;;;;;;;;5131819;27;20470;-69
2023/12/29 14:13:23;;;;;;;6.72;6.18;;;;;;;;;;5129070;27;20066;-68
2023/12/29 14:15:51;;;;;;;5.30;4.90;;;;;;;;;;5112032;27;20112;-68
2023/12/29 14:18:23;;;;;;;8.25;6.82;;;;;;;;;;5111810;27;20391;-68
2023/12/29 14:20:49;;;;;;;6.32;5.60;;;;;;;;;;5120375;27;20060;-69
2023/12/29 14:23:17;;;;;;;9.98;6.40;;;;;;;;;;5131306;27;20035;-68
2023/12/29 14:25:43;;;;;;;9.40;5.65;;;;;;;;;;5084231;27;20080;-68
2023/12/29 14:28:19;;;;;;;5.82;5.25;;;;;;;;;;5113135;27;20031;-69
2023/12/29 14:30:45;;;;;;;8.13;6.78;;;;;;;;;;5130069;27;20581;-68
2023/12/29 14:33:10;;;;;;;11.10;6.30;;;;;;;;;;5113322;27;20077;-69
2023/12/29 14:35:39;;;;;;;5.55;5.05;;;;;;;;;;5128554;27;20118;-68
2023/12/29 14:38:05;;;;;;;10.73;7.93;;;;;;;;;;5121535;27;20039;-68
2023/12/29 14:40:34;;;;;;;4.90;4.47;;;;;;;;;;5130631;27;20425;-67